Pitt Greenville Airport
KPGV : now visible

Airfield :











YOU CAN JOIN US ON...

 
LOGIN :

Register | Disclaimer

   EN    FR    IT 

 









Legend :    VFR   Marginal VFR   IFR   Intensive IFR   Very Intensive IFR
Visi :
Ceiling :
>= 8 km
>= 3000ft
5 to 8 km
1000 to 3000 ft
1500m to 5 km
500 to 1000 ft
800 to 1500m
200 to 500 ft
< 800m
< 200 ft
Symbols :   Thunderstorms  Fog  Heavy snow  Heavy precipitations  Wind > 20 kt






- Airport Elevation : 26 ft


KPGV - Pitt Greenville

CURRENT METAR :
  • 090455Z AUTO 00000KT 10SM CLR 10/06 A3011 RMK AO2

EXPIRED METARs :
  • 090435Z AUTO 00000KT 10SM SCT080 10/08 A3010 RMK AO2
  • 090415Z AUTO 00000KT 10SM CLR 10/08 A3009 RMK AO2
  • 090355Z AUTO 00000KT 10SM CLR 10/08 A3009 RMK AO2
  • 090335Z AUTO 00000KT 10SM CLR 10/08 A3009 RMK AO2
  • 090315Z AUTO 00000KT 10SM CLR 11/08 A3009 RMK AO2
  • 090255Z AUTO 00000KT 10SM CLR 10/07 A3009 RMK AO2
  • 090235Z AUTO 00000KT 10SM CLR 11/06 A3009 RMK AO2

TAF KPGV
Valid from the 09 at 00:00 until the 10 at 00:00 UTC


082337Z 0900/0924 VRB03KT P6SM FEW150
FM091300 09005KT P6SM SCT150
FM091700 19010G15KT P6SM FEW150 AMD LTD TO CLD VIS AND WIND
KZDC FIR / North America



MET'MAP, your aeronautical weather chart ! - Copyright ORBIFLY December 2007 - Disclaimer

ORBIFLY MET'MAP TEAM :

Programming & Development : Alexandra Zaïnal
Concept & original design : Baudouin d'Aumeries
Assistance for programming : Marc-Olivier Méhu
Technical & hardware support : Manuel Goepfert

Contact : metmap@orbifly.com




SOURCES & CREDITS :

   NOAA       Earth
Advisory